createdAt,value
2023-01-30T00:01:38.830Z,74.12
2023-01-30T00:04:10.495Z,73.82
2023-01-30T00:06:41.856Z,74.03
2023-01-30T00:09:15.028Z,73.93
2023-01-30T00:11:47.552Z,73.81
2023-01-30T00:14:19.132Z,73.90
2023-01-30T00:16:51.530Z,73.73
2023-01-30T00:19:22.276Z,73.84
2023-01-30T00:21:53.327Z,73.83
2023-01-30T00:24:24.996Z,73.61
2023-01-30T00:26:56.585Z,73.72
2023-01-30T00:29:27.423Z,74.17
2023-01-30T00:31:58.602Z,73.87
2023-01-30T00:34:29.885Z,74.02
2023-01-30T00:37:08.055Z,73.71
2023-01-30T00:39:40.168Z,73.72
2023-01-30T00:49:10.050Z,73.78
2023-01-30T00:51:40.705Z,73.74
2023-01-30T00:54:11.552Z,73.36
2023-01-30T00:56:42.332Z,73.16
2023-01-30T00:59:13.164Z,73.36
2023-01-30T01:01:43.957Z,73.68
2023-01-30T01:04:14.768Z,73.26
2023-01-30T01:06:45.596Z,73.42
2023-01-30T01:09:16.322Z,73.40
2023-01-30T01:11:47.023Z,73.40
2023-01-30T01:14:17.927Z,73.47
2023-01-30T01:16:48.705Z,73.60
2023-01-30T01:19:19.469Z,73.65
2023-01-30T01:21:50.229Z,73.29
2023-01-30T01:24:21.090Z,73.62
2023-01-30T01:26:51.898Z,73.35
2023-01-30T01:29:22.707Z,73.34
2023-01-30T01:31:53.459Z,73.03
2023-01-30T01:34:24.336Z,73.36
2023-01-30T01:36:55.160Z,73.31
2023-01-30T01:39:46.178Z,73.22
2023-01-30T01:42:16.909Z,73.21
2023-01-30T01:45:05.055Z,73.09
2023-01-30T01:47:35.761Z,73.40
2023-01-30T01:50:06.781Z,73.17
2023-01-30T01:52:37.520Z,73.24
2023-01-30T01:55:08.846Z,73.03
2023-01-30T01:57:40.237Z,73.15
2023-01-30T02:00:14.911Z,72.98
2023-01-30T02:02:46.958Z,72.78
2023-01-30T02:05:18.176Z,72.76
2023-01-30T02:07:52.438Z,72.88
2023-01-30T02:10:23.818Z,72.72
2023-01-30T02:12:54.546Z,72.92
2023-01-30T02:15:25.385Z,73.06
2023-01-30T02:17:56.128Z,72.63
2023-01-30T02:20:30.547Z,72.84
2023-01-30T02:23:20.688Z,72.83
2023-01-30T02:25:56.570Z,72.80
2023-01-30T02:28:33.993Z,72.88
2023-01-30T02:31:07.283Z,72.69
2023-01-30T02:33:41.441Z,72.54
2023-01-30T02:36:15.111Z,72.72
2023-01-30T02:38:48.726Z,72.33
2023-01-30T02:41:21.574Z,72.60
2023-01-30T02:43:56.072Z,72.39
2023-01-30T02:46:27.524Z,72.61
2023-01-30T02:48:58.801Z,72.45
2023-01-30T02:51:30.334Z,72.33
2023-01-30T02:54:01.532Z,72.21
2023-01-30T02:56:42.503Z,72.22
2023-01-30T02:59:13.305Z,72.41
2023-01-30T03:01:57.462Z,72.22
2023-01-30T03:04:38.033Z,72.14
2023-01-30T03:07:12.939Z,72.12
2023-01-30T03:09:45.952Z,72.31
2023-01-30T03:12:17.967Z,72.02
2023-01-30T03:14:49.975Z,72.01
2023-01-30T03:17:20.805Z,72.01
2023-01-30T03:19:52.051Z,72.12
2023-01-30T03:22:23.215Z,71.99
2023-01-30T03:24:54.544Z,71.95
2023-01-30T03:27:25.370Z,71.62
2023-01-30T03:29:56.070Z,71.94
2023-01-30T03:32:27.020Z,71.73
2023-01-30T03:34:58.898Z,71.80
2023-01-30T03:37:30.143Z,71.59
2023-01-30T03:40:01.602Z,72.04
2023-01-30T03:42:33.154Z,71.77
2023-01-30T03:45:04.705Z,71.74
2023-01-30T03:47:36.127Z,71.67
2023-01-30T03:50:08.115Z,71.53
2023-01-30T03:52:39.551Z,71.68
2023-01-30T03:55:11.529Z,71.60
2023-01-30T03:57:42.968Z,71.77
2023-01-30T04:00:15.514Z,71.67
2023-01-30T04:02:46.774Z,72.04
2023-01-30T04:05:18.756Z,71.49
2023-01-30T04:07:50.683Z,71.62
2023-01-30T04:10:22.227Z,71.83
2023-01-30T04:12:53.659Z,71.89
2023-01-30T04:15:24.767Z,71.73
2023-01-30T04:17:56.190Z,71.84
2023-01-30T04:20:27.732Z,71.87
2023-01-30T04:22:59.455Z,71.78
2023-01-30T04:25:30.463Z,71.79
2023-01-30T04:28:01.814Z,71.68
2023-01-30T04:30:33.197Z,71.76
2023-01-30T04:33:04.990Z,71.94
2023-01-30T04:35:36.363Z,71.83
2023-01-30T04:38:07.337Z,71.74
2023-01-30T04:40:38.604Z,71.64
2023-01-30T04:43:10.128Z,71.82
2023-01-30T04:45:43.734Z,71.68
2023-01-30T04:48:15.183Z,71.76
2023-01-30T04:50:48.479Z,71.66
2023-01-30T04:53:20.189Z,71.71
2023-01-30T04:55:51.622Z,71.86
2023-01-30T04:58:23.244Z,71.94
2023-01-30T05:00:54.636Z,71.87
2023-01-30T05:03:26.165Z,71.88
2023-01-30T05:05:57.393Z,71.93
2023-01-30T05:08:28.846Z,71.85
2023-01-30T05:11:00.394Z,71.83
2023-01-30T05:13:31.958Z,71.79
2023-01-30T05:16:03.314Z,71.93
2023-01-30T05:18:35.416Z,71.55
2023-01-30T05:21:08.350Z,71.80
2023-01-30T05:23:39.982Z,71.79
2023-01-30T05:26:11.741Z,71.72
2023-01-30T05:28:43.382Z,71.69
2023-01-30T05:31:15.134Z,71.63
2023-01-30T05:33:47.923Z,71.62
2023-01-30T05:36:19.881Z,71.80
2023-01-30T05:38:51.471Z,71.72
2023-01-30T05:41:22.799Z,71.77
2023-01-30T05:43:54.053Z,72.04
2023-01-30T05:46:25.556Z,72.00
2023-01-30T05:48:57.233Z,71.73
2023-01-30T05:51:28.780Z,72.04
2023-01-30T05:54:00.171Z,72.02
2023-01-30T05:56:33.392Z,71.90
2023-01-30T05:59:05.033Z,72.31
2023-01-30T06:01:36.521Z,72.25
2023-01-30T06:04:08.156Z,72.51
2023-01-30T06:06:39.518Z,72.28
2023-01-30T06:09:12.202Z,72.00
2023-01-30T06:11:43.863Z,71.84
2023-01-30T06:14:15.423Z,71.69
2023-01-30T06:16:47.190Z,71.52
2023-01-30T06:19:18.507Z,71.61
2023-01-30T06:21:49.878Z,71.55
2023-01-30T06:24:21.455Z,71.59
2023-01-30T06:26:53.005Z,71.77
2023-01-30T06:29:24.507Z,71.28
2023-01-30T06:31:55.797Z,71.57
2023-01-30T06:34:27.331Z,71.53
2023-01-30T06:36:58.942Z,71.41
2023-01-30T06:39:30.418Z,71.56
2023-01-30T06:42:01.778Z,71.50
2023-01-30T06:44:33.075Z,71.52
2023-01-30T06:47:04.255Z,71.64
2023-01-30T06:49:35.562Z,71.56
2023-01-30T06:52:07.210Z,71.65
2023-01-30T06:54:38.797Z,71.45
2023-01-30T06:57:10.197Z,71.49
2023-01-30T06:59:41.621Z,71.36
2023-01-30T07:02:14.574Z,71.45
2023-01-30T07:04:46.152Z,71.59
2023-01-30T07:07:17.648Z,71.70
2023-01-30T07:10:02.138Z,71.37
2023-01-30T07:12:38.118Z,71.16
2023-01-30T07:15:10.531Z,71.03
2023-01-30T07:17:43.131Z,70.72
2023-01-30T07:20:15.064Z,71.03
2023-01-30T07:22:46.271Z,70.93
2023-01-30T07:25:18.143Z,71.02
2023-01-30T07:27:53.426Z,70.66
2023-01-30T07:30:25.264Z,71.05
2023-01-30T07:32:57.934Z,70.69
2023-01-30T07:35:29.993Z,70.86
2023-01-30T07:38:01.286Z,70.77
2023-01-30T07:40:32.901Z,70.62
2023-01-30T07:43:05.135Z,70.77
2023-01-30T07:45:38.428Z,70.85
2023-01-30T07:48:09.916Z,70.74
2023-01-30T07:50:41.292Z,70.87
2023-01-30T07:53:13.410Z,70.85
2023-01-30T07:55:44.960Z,70.72
2023-01-30T07:58:17.654Z,70.43
2023-01-30T08:00:48.992Z,70.47
2023-01-30T08:03:20.199Z,70.42
2023-01-30T08:05:53.112Z,69.97
2023-01-30T08:08:24.946Z,70.03
2023-01-30T08:10:56.245Z,70.39
2023-01-30T08:13:27.636Z,70.28
2023-01-30T08:16:01.933Z,70.60
2023-01-30T08:18:33.536Z,70.30
2023-01-30T08:21:06.084Z,70.20
2023-01-30T08:23:37.595Z,69.94
2023-01-30T08:26:09.013Z,70.39
2023-01-30T08:28:40.655Z,70.42
2023-01-30T08:31:12.699Z,70.45
2023-01-30T08:33:44.367Z,70.35
2023-01-30T08:36:15.964Z,70.50
2023-01-30T08:38:47.103Z,70.31
2023-01-30T08:41:18.498Z,70.28
2023-01-30T08:43:49.807Z,70.32
2023-01-30T08:46:22.223Z,70.29
2023-01-30T08:48:53.690Z,70.34
2023-01-30T08:51:25.279Z,70.23
2023-01-30T08:53:56.364Z,70.45
2023-01-30T08:56:27.901Z,70.52
2023-01-30T08:58:59.654Z,70.64
2023-01-30T09:01:31.193Z,70.26
2023-01-30T09:04:02.467Z,70.53
2023-01-30T09:06:34.123Z,70.53
2023-01-30T09:09:05.639Z,70.27
2023-01-30T09:11:37.340Z,69.94
2023-01-30T09:14:08.540Z,70.14
2023-01-30T09:16:39.834Z,70.22
2023-01-30T09:19:11.103Z,70.09
2023-01-30T09:21:42.640Z,70.30
2023-01-30T09:24:14.129Z,70.22
2023-01-30T09:26:46.204Z,70.32
2023-01-30T09:29:17.474Z,70.32
2023-01-30T09:31:48.739Z,70.07
2023-01-30T09:34:20.271Z,70.07
2023-01-30T09:36:51.937Z,70.17
2023-01-30T09:39:23.321Z,70.00
2023-01-30T09:41:58.937Z,69.81
2023-01-30T09:44:49.585Z,69.89
2023-01-30T09:47:22.746Z,69.74
2023-01-30T09:49:55.656Z,69.88
2023-01-30T09:52:29.121Z,69.83
2023-01-30T09:55:02.168Z,69.77
2023-01-30T09:57:33.622Z,69.72
2023-01-30T10:00:06.380Z,69.61
2023-01-30T10:02:43.295Z,69.78
2023-01-30T10:05:14.821Z,69.73
2023-01-30T10:07:50.467Z,69.49
2023-01-30T10:10:36.186Z,69.54
2023-01-30T10:13:10.348Z,69.89
2023-01-30T10:15:44.884Z,70.10
2023-01-30T10:18:23.659Z,69.82
2023-01-30T10:20:57.724Z,69.46
2023-01-30T10:23:34.015Z,69.04
2023-01-30T10:26:07.129Z,68.91
2023-01-30T10:28:39.997Z,69.14
2023-01-30T10:31:12.095Z,69.28
2023-01-30T10:33:45.640Z,69.37
2023-01-30T10:36:17.880Z,69.28
2023-01-30T10:38:49.827Z,69.34
2023-01-30T10:41:24.085Z,69.23
2023-01-30T10:43:59.188Z,69.25
2023-01-30T10:46:35.222Z,69.26
2023-01-30T10:49:06.706Z,69.12
2023-01-30T10:51:42.888Z,68.60
2023-01-30T10:54:15.219Z,68.61
2023-01-30T10:56:49.889Z,68.35
2023-01-30T10:59:25.247Z,67.91
2023-01-30T11:02:00.199Z,67.87
2023-01-30T11:04:33.419Z,67.85
2023-01-30T11:07:04.909Z,68.26
2023-01-30T11:09:44.086Z,68.35
2023-01-30T11:12:15.615Z,68.57
2023-01-30T11:14:53.885Z,68.47
2023-01-30T11:17:30.863Z,68.09
2023-01-30T11:20:06.793Z,68.08
2023-01-30T11:22:38.136Z,68.08
2023-01-30T11:25:14.771Z,68.18
2023-01-30T11:27:47.399Z,67.91
2023-01-30T11:30:20.453Z,67.59
2023-01-30T11:32:52.335Z,67.79
2023-01-30T11:35:28.008Z,67.73
2023-01-30T11:38:00.268Z,67.99
2023-01-30T11:40:32.372Z,67.81
2023-01-30T11:43:06.015Z,68.18
2023-01-30T11:45:38.908Z,67.97
2023-01-30T11:48:31.316Z,68.13
2023-01-30T11:51:06.759Z,68.18
2023-01-30T11:53:39.478Z,67.63
2023-01-30T11:56:16.647Z,67.39
2023-01-30T11:58:50.118Z,67.66
2023-01-30T12:01:21.561Z,67.83
2023-01-30T12:03:53.072Z,67.86
2023-01-30T12:06:25.455Z,67.66
2023-01-30T12:08:56.787Z,67.33
2023-01-30T12:11:29.838Z,67.30
2023-01-30T12:14:24.327Z,67.58
2023-01-30T12:16:58.025Z,67.48
2023-01-30T12:19:32.739Z,67.30
2023-01-30T12:22:05.908Z,67.30
2023-01-30T12:24:38.946Z,67.61
2023-01-30T12:27:13.111Z,67.79
2023-01-30T12:29:51.369Z,67.61
2023-01-30T12:32:22.962Z,67.66
2023-01-30T12:34:54.378Z,67.68
2023-01-30T12:37:33.543Z,67.34
2023-01-30T12:40:06.543Z,66.97
2023-01-30T12:42:44.323Z,67.99
2023-01-30T12:45:19.274Z,67.53
2023-01-30T12:48:07.327Z,67.48
2023-01-30T12:50:41.398Z,67.72
2023-01-30T12:53:18.703Z,67.67
2023-01-30T12:55:52.167Z,67.73
2023-01-30T12:58:24.634Z,67.75
2023-01-30T13:01:07.511Z,66.88
2023-01-30T13:03:40.293Z,66.39
2023-01-30T13:06:18.907Z,66.34
2023-01-30T13:08:54.346Z,66.59
2023-01-30T13:11:32.247Z,66.39
2023-01-30T13:14:05.189Z,66.04
2023-01-30T13:16:38.142Z,66.28
2023-01-30T13:19:11.534Z,66.62
2023-01-30T13:21:43.732Z,66.66
2023-01-30T13:24:18.655Z,66.48
2023-01-30T13:26:50.241Z,66.61
2023-01-30T13:29:22.572Z,66.24
2023-01-30T13:31:54.966Z,66.41
2023-01-30T13:34:29.596Z,66.41
2023-01-30T13:37:04.009Z,66.50
2023-01-30T13:39:37.187Z,66.78
2023-01-30T13:42:16.990Z,66.83
2023-01-30T13:44:49.417Z,66.14
2023-01-30T13:47:28.244Z,66.34
2023-01-30T13:50:01.782Z,66.45
2023-01-30T13:52:35.321Z,66.39
2023-01-30T13:55:08.106Z,66.33
2023-01-30T13:57:46.227Z,65.98
2023-01-30T14:00:24.132Z,66.10
2023-01-30T14:03:13.714Z,66.31
2023-01-30T14:06:02.515Z,66.16
2023-01-30T14:08:34.859Z,66.43
2023-01-30T14:11:06.970Z,66.27
2023-01-30T14:13:38.180Z,66.35
2023-01-30T14:16:09.664Z,66.44
2023-01-30T14:18:45.871Z,66.29
2023-01-30T14:21:20.332Z,66.53
2023-01-30T14:23:59.252Z,66.47
2023-01-30T14:26:50.321Z,66.45
2023-01-30T14:35:32.728Z,66.30
2023-01-30T14:44:46.541Z,66.45
2023-01-30T14:47:33.656Z,66.36
2023-01-30T14:50:18.482Z,66.38
2023-01-30T14:52:51.496Z,66.70
2023-01-30T14:55:23.741Z,66.55
2023-01-30T14:58:04.490Z,66.36
2023-01-30T15:00:36.782Z,66.48
2023-01-30T15:03:09.843Z,66.55
2023-01-30T15:05:43.211Z,66.44
2023-01-30T15:08:15.576Z,66.37
2023-01-30T15:11:09.403Z,66.72
2023-01-30T15:14:04.053Z,66.60
2023-01-30T15:16:44.779Z,66.75
2023-01-30T15:19:28.615Z,66.59
2023-01-30T15:22:12.341Z,66.83
2023-01-30T15:25:00.696Z,67.00
2023-01-30T15:27:36.612Z,66.44
2023-01-30T15:30:17.391Z,66.57
2023-01-30T15:33:22.985Z,66.64
2023-01-30T15:35:57.726Z,66.77
2023-01-30T15:38:31.406Z,66.74
2023-01-30T15:41:06.577Z,66.84
2023-01-30T15:43:54.194Z,66.71
2023-01-30T15:46:28.136Z,67.04
2023-01-30T15:49:05.987Z,66.99
2023-01-30T15:58:42.257Z,66.77
2023-01-30T16:01:05.452Z,66.99
2023-01-30T16:03:44.349Z,67.22
2023-01-30T16:06:27.979Z,66.96
2023-01-30T16:09:01.786Z,67.14
2023-01-30T16:11:40.442Z,66.97
2023-01-30T16:14:14.680Z,67.21
2023-01-30T16:16:46.700Z,67.53
2023-01-30T16:19:30.038Z,67.54
2023-01-30T16:22:14.713Z,67.45
2023-01-30T16:25:12.666Z,67.62
2023-01-30T16:27:56.253Z,67.49
2023-01-30T16:30:30.652Z,67.84
2023-01-30T16:33:17.775Z,67.67
2023-01-30T16:35:50.584Z,67.64
2023-01-30T16:38:44.790Z,67.87
2023-01-30T16:41:36.165Z,67.83
2023-01-30T16:44:21.684Z,67.65
2023-01-30T16:46:58.871Z,67.95
2023-01-30T16:49:35.386Z,67.63
2023-01-30T16:52:20.534Z,68.06
2023-01-30T16:54:52.037Z,68.05
2023-01-30T16:57:27.524Z,68.02
2023-01-30T17:00:00.041Z,68.15
2023-01-30T17:02:32.863Z,68.09
2023-01-30T17:05:14.944Z,67.93
2023-01-30T17:07:46.165Z,68.10
2023-01-30T17:10:36.860Z,68.09
2023-01-30T17:13:11.691Z,67.93
2023-01-30T17:15:42.427Z,68.16
2023-01-30T17:18:13.454Z,68.54
2023-01-30T17:20:47.666Z,68.51
2023-01-30T17:23:18.810Z,68.28
2023-01-30T17:25:49.858Z,68.18
2023-01-30T17:28:24.314Z,68.21
2023-01-30T17:30:55.343Z,68.65
2023-01-30T17:33:26.596Z,68.36
2023-01-30T17:35:57.308Z,68.56
2023-01-30T17:38:28.075Z,68.53
2023-01-30T17:44:11.554Z,68.46
2023-01-30T17:46:46.173Z,68.58
2023-01-30T17:49:19.755Z,68.59
2023-01-30T17:54:39.721Z,68.72
2023-01-30T17:57:11.699Z,68.42
2023-01-30T17:59:42.543Z,68.53
2023-01-30T18:02:13.582Z,68.35
2023-01-30T18:04:44.375Z,68.50
2023-01-30T18:07:16.764Z,68.31
2023-01-30T18:09:47.900Z,68.35
2023-01-30T18:12:19.888Z,68.50
2023-01-30T18:17:49.944Z,68.03
2023-01-30T18:20:21.643Z,68.21
2023-01-30T18:22:52.479Z,68.27
2023-01-30T18:25:24.450Z,68.03
2023-01-30T18:27:57.393Z,68.19
2023-01-30T18:30:29.145Z,68.23
2023-01-30T18:33:01.064Z,68.35
2023-01-30T18:35:32.134Z,68.32
2023-01-30T18:38:03.229Z,68.25
2023-01-30T18:40:34.128Z,68.28
2023-01-30T18:43:05.277Z,68.16
2023-01-30T18:45:36.229Z,68.10
2023-01-30T18:48:07.323Z,67.80
2023-01-30T18:50:38.639Z,67.74
2023-01-30T18:53:19.840Z,67.66
2023-01-30T18:56:09.838Z,67.92
2023-01-30T18:58:58.708Z,67.80
2023-01-30T19:01:30.800Z,67.93
2023-01-30T19:04:02.590Z,67.95
2023-01-30T19:06:33.528Z,67.58
2023-01-30T19:09:04.702Z,67.82
2023-01-30T19:11:53.242Z,67.82
2023-01-30T19:14:23.972Z,67.42
2023-01-30T19:16:56.064Z,67.71
2023-01-30T19:19:27.275Z,67.52
2023-01-30T19:21:58.872Z,67.81
2023-01-30T19:24:29.808Z,67.69
2023-01-30T19:27:00.904Z,67.70
2023-01-30T19:29:32.330Z,67.54
2023-01-30T19:32:03.651Z,67.52
2023-01-30T19:34:36.874Z,67.76
2023-01-30T19:37:07.964Z,67.51
2023-01-30T19:39:40.832Z,67.53
2023-01-30T19:42:16.534Z,67.66
2023-01-30T19:44:48.875Z,67.56
2023-01-30T19:47:24.320Z,67.39
2023-01-30T19:49:55.927Z,67.29
2023-01-30T19:52:27.883Z,67.39
2023-01-30T19:54:59.034Z,67.43
2023-01-30T19:57:30.219Z,67.64
2023-01-30T20:00:05.373Z,67.57
2023-01-30T20:02:38.463Z,67.74
2023-01-30T20:05:11.644Z,67.52
2023-01-30T20:07:42.398Z,67.53
2023-01-30T20:10:13.368Z,67.20
2023-01-30T20:12:44.224Z,67.83
2023-01-30T20:15:17.302Z,67.51
2023-01-30T20:17:48.032Z,67.67
2023-01-30T20:20:19.275Z,67.74
2023-01-30T20:22:50.162Z,67.56
2023-01-30T20:25:21.116Z,67.55
2023-01-30T20:27:52.031Z,67.66
2023-01-30T20:30:22.784Z,67.28
2023-01-30T20:32:56.612Z,67.31
2023-01-30T20:35:27.465Z,67.38
2023-01-30T20:37:58.418Z,67.26
2023-01-30T20:40:29.113Z,67.57
2023-01-30T20:43:00.369Z,67.33
2023-01-30T20:45:31.124Z,67.54
2023-01-30T20:48:02.111Z,67.36
2023-01-30T20:50:32.984Z,67.38
2023-01-30T20:53:04.126Z,67.57
2023-01-30T20:55:34.857Z,67.29
2023-01-30T20:58:05.678Z,67.14
2023-01-30T21:00:37.051Z,67.21
2023-01-30T21:03:08.002Z,67.46
2023-01-30T21:05:38.758Z,67.25
2023-01-30T21:08:11.785Z,67.21
2023-01-30T21:10:46.842Z,67.23
2023-01-30T21:13:17.537Z,67.01
2023-01-30T21:15:48.416Z,67.26
2023-01-30T21:18:19.068Z,67.56
2023-01-30T21:20:51.311Z,67.44
2023-01-30T21:23:22.295Z,67.62
2023-01-30T21:25:52.993Z,67.20
2023-01-30T21:28:23.702Z,67.43
2023-01-30T21:30:54.445Z,67.28
2023-01-30T21:33:25.361Z,67.36
2023-01-30T21:35:56.047Z,67.36
2023-01-30T21:38:44.443Z,67.45
2023-01-30T21:41:33.651Z,67.32
2023-01-30T21:44:04.706Z,67.37
2023-01-30T21:46:36.618Z,67.25
2023-01-30T21:49:07.520Z,67.60
2023-01-30T21:51:38.896Z,67.50
2023-01-30T21:54:09.866Z,67.34
2023-01-30T21:56:40.700Z,67.14
2023-01-30T21:59:11.568Z,67.15
2023-01-30T22:01:42.494Z,67.04
2023-01-30T22:04:15.011Z,67.39
2023-01-30T22:06:45.652Z,67.47
2023-01-30T22:09:16.610Z,67.53
2023-01-30T22:11:47.594Z,67.65
2023-01-30T22:14:18.276Z,67.18
2023-01-30T22:16:49.286Z,67.33
2023-01-30T22:19:19.956Z,67.42
2023-01-30T22:21:50.686Z,67.21
2023-01-30T22:24:21.559Z,67.62
2023-01-30T22:26:53.156Z,67.63
2023-01-30T22:29:24.090Z,67.23
2023-01-30T22:31:55.085Z,67.25
2023-01-30T22:34:25.876Z,67.32
2023-01-30T22:36:56.759Z,67.50
2023-01-30T22:39:27.693Z,67.11
2023-01-30T22:41:59.354Z,67.22
2023-01-30T22:44:31.038Z,67.34
2023-01-30T22:47:02.071Z,67.46
2023-01-30T22:49:34.341Z,67.37
2023-01-30T22:52:05.821Z,67.42
2023-01-30T22:54:37.305Z,67.63
2023-01-30T22:57:08.529Z,67.25
2023-01-30T22:59:39.728Z,67.42
2023-01-30T23:02:10.931Z,67.63
2023-01-30T23:04:42.194Z,67.43
2023-01-30T23:07:14.491Z,67.19
2023-01-30T23:09:45.691Z,67.26
2023-01-30T23:12:33.862Z,67.56
2023-01-30T23:15:05.095Z,67.31
2023-01-30T23:17:53.127Z,67.49
2023-01-30T23:20:27.519Z,67.43
2023-01-30T23:23:00.727Z,67.51
2023-01-30T23:25:31.686Z,67.48
2023-01-30T23:28:02.313Z,67.36
2023-01-30T23:30:33.153Z,67.53
2023-01-30T23:33:03.730Z,67.65
2023-01-30T23:35:35.385Z,67.45
2023-01-30T23:38:19.275Z,67.78
2023-01-30T23:40:50.360Z,67.51
2023-01-30T23:43:21.405Z,67.43
2023-01-30T23:45:55.990Z,67.20
2023-01-30T23:48:27.335Z,67.69
2023-01-30T23:50:58.187Z,67.42
2023-01-30T23:53:29.160Z,67.54
2023-01-30T23:56:00.341Z,67.73
2023-01-30T23:58:31.316Z,67.35
